sensor_id;sensor_type;location;lat;lon;timestamp;P1;durP1;ratioP1;P2;durP2;ratioP2
64712;SDS011;51140;45.340;5.980;2023-06-26T00:01:02;11.18;;;5.60;;
64712;SDS011;51140;45.340;5.980;2023-06-26T00:03:27;9.98;;;6.03;;
64712;SDS011;51140;45.340;5.980;2023-06-26T00:05:54;8.75;;;6.05;;
64712;SDS011;51140;45.340;5.980;2023-06-26T00:08:19;10.90;;;6.28;;
64712;SDS011;51140;45.340;5.980;2023-06-26T00:10:44;10.25;;;5.97;;
64712;SDS011;51140;45.340;5.980;2023-06-26T00:13:11;9.00;;;5.97;;
64712;SDS011;51140;45.340;5.980;2023-06-26T00:15:37;9.70;;;6.00;;
64712;SDS011;51140;45.340;5.980;2023-06-26T00:18:03;10.95;;;6.53;;
64712;SDS011;51140;45.340;5.980;2023-06-26T00:20:28;9.55;;;6.10;;
64712;SDS011;51140;45.340;5.980;2023-06-26T00:22:54;8.63;;;5.65;;
64712;SDS011;51140;45.340;5.980;2023-06-26T00:25:20;11.15;;;5.95;;
64712;SDS011;51140;45.340;5.980;2023-06-26T00:27:46;9.40;;;6.22;;
64712;SDS011;51140;45.340;5.980;2023-06-26T00:30:11;9.60;;;5.68;;
64712;SDS011;51140;45.340;5.980;2023-06-26T00:32:37;8.38;;;5.95;;
64712;SDS011;51140;45.340;5.980;2023-06-26T00:35:02;10.27;;;5.70;;
64712;SDS011;51140;45.340;5.980;2023-06-26T00:37:28;9.40;;;6.22;;
64712;SDS011;51140;45.340;5.980;2023-06-26T00:39:53;10.45;;;6.10;;
64712;SDS011;51140;45.340;5.980;2023-06-26T00:42:18;11.25;;;6.30;;
64712;SDS011;51140;45.340;5.980;2023-06-26T00:44:44;9.98;;;5.70;;
64712;SDS011;51140;45.340;5.980;2023-06-26T00:47:10;9.50;;;6.45;;
64712;SDS011;51140;45.340;5.980;2023-06-26T00:49:39;11.52;;;6.22;;
64712;SDS011;51140;45.340;5.980;2023-06-26T00:52:04;11.13;;;6.68;;
64712;SDS011;51140;45.340;5.980;2023-06-26T00:54:31;9.90;;;6.30;;
64712;SDS011;51140;45.340;5.980;2023-06-26T00:56:56;10.10;;;6.60;;
64712;SDS011;51140;45.340;5.980;2023-06-26T00:59:22;9.75;;;6.45;;
64712;SDS011;51140;45.340;5.980;2023-06-26T01:01:47;10.57;;;6.35;;
64712;SDS011;51140;45.340;5.980;2023-06-26T01:04:13;10.35;;;6.45;;
64712;SDS011;51140;45.340;5.980;2023-06-26T01:06:43;10.85;;;6.30;;
64712;SDS011;51140;45.340;5.980;2023-06-26T01:09:14;10.88;;;6.60;;
64712;SDS011;51140;45.340;5.980;2023-06-26T01:11:41;12.18;;;6.25;;
64712;SDS011;51140;45.340;5.980;2023-06-26T01:14:07;12.18;;;6.60;;
64712;SDS011;51140;45.340;5.980;2023-06-26T01:16:32;12.02;;;6.35;;
64712;SDS011;51140;45.340;5.980;2023-06-26T01:18:59;9.90;;;6.35;;
64712;SDS011;51140;45.340;5.980;2023-06-26T01:21:25;13.75;;;7.00;;
64712;SDS011;51140;45.340;5.980;2023-06-26T01:26:45;9.55;;;5.90;;
64712;SDS011;51140;45.340;5.980;2023-06-26T01:29:13;10.90;;;6.18;;
64712;SDS011;51140;45.340;5.980;2023-06-26T01:31:42;11.25;;;6.30;;
64712;SDS011;51140;45.340;5.980;2023-06-26T01:34:09;13.80;;;6.95;;
64712;SDS011;51140;45.340;5.980;2023-06-26T01:36:34;13.93;;;6.70;;
64712;SDS011;51140;45.340;5.980;2023-06-26T01:39:00;9.93;;;6.32;;
64712;SDS011;51140;45.340;5.980;2023-06-26T01:41:25;8.45;;;5.97;;
64712;SDS011;51140;45.340;5.980;2023-06-26T01:46:42;9.35;;;5.80;;
64712;SDS011;51140;45.340;5.980;2023-06-26T01:58:00;10.20;;;5.82;;
64712;SDS011;51140;45.340;5.980;2023-06-26T02:00:26;12.90;;;6.43;;
64712;SDS011;51140;45.340;5.980;2023-06-26T02:02:52;9.38;;;5.60;;
64712;SDS011;51140;45.340;5.980;2023-06-26T02:05:18;10.25;;;5.65;;
64712;SDS011;51140;45.340;5.980;2023-06-26T02:07:43;9.20;;;5.68;;
64712;SDS011;51140;45.340;5.980;2023-06-26T02:10:09;10.82;;;6.00;;
64712;SDS011;51140;45.340;5.980;2023-06-26T02:12:36;10.93;;;6.00;;
64712;SDS011;51140;45.340;5.980;2023-06-26T02:15:02;11.35;;;6.43;;
64712;SDS011;51140;45.340;5.980;2023-06-26T02:17:29;12.32;;;6.47;;
64712;SDS011;51140;45.340;5.980;2023-06-26T02:19:54;10.13;;;6.25;;
64712;SDS011;51140;45.340;5.980;2023-06-26T02:22:20;10.80;;;6.38;;
64712;SDS011;51140;45.340;5.980;2023-06-26T02:24:45;11.23;;;6.10;;
64712;SDS011;51140;45.340;5.980;2023-06-26T02:27:10;10.65;;;5.88;;
64712;SDS011;51140;45.340;5.980;2023-06-26T02:29:36;9.90;;;6.93;;
64712;SDS011;51140;45.340;5.980;2023-06-26T02:32:02;9.68;;;6.60;;
64712;SDS011;51140;45.340;5.980;2023-06-26T02:34:27;10.88;;;5.82;;
64712;SDS011;51140;45.340;5.980;2023-06-26T02:36:53;12.85;;;6.45;;
64712;SDS011;51140;45.340;5.980;2023-06-26T02:39:21;9.05;;;6.18;;
64712;SDS011;51140;45.340;5.980;2023-06-26T02:41:46;13.63;;;5.97;;
64712;SDS011;51140;45.340;5.980;2023-06-26T02:44:12;11.23;;;6.45;;
64712;SDS011;51140;45.340;5.980;2023-06-26T02:46:39;9.25;;;5.95;;
64712;SDS011;51140;45.340;5.980;2023-06-26T02:49:04;9.75;;;6.13;;
64712;SDS011;51140;45.340;5.980;2023-06-26T02:51:31;11.77;;;6.60;;
64712;SDS011;51140;45.340;5.980;2023-06-26T02:53:58;10.13;;;6.25;;
64712;SDS011;51140;45.340;5.980;2023-06-26T02:56:23;10.50;;;6.25;;
64712;SDS011;51140;45.340;5.980;2023-06-26T02:58:48;11.25;;;6.53;;
64712;SDS011;51140;45.340;5.980;2023-06-26T03:01:14;12.02;;;6.82;;
64712;SDS011;51140;45.340;5.980;2023-06-26T03:03:40;10.75;;;6.15;;
64712;SDS011;51140;45.340;5.980;2023-06-26T03:06:06;9.45;;;5.47;;
64712;SDS011;51140;45.340;5.980;2023-06-26T03:08:32;9.88;;;5.75;;
64712;SDS011;51140;45.340;5.980;2023-06-26T03:11:02;9.75;;;6.00;;
64712;SDS011;51140;45.340;5.980;2023-06-26T03:13:27;10.85;;;6.60;;
64712;SDS011;51140;45.340;5.980;2023-06-26T03:15:52;11.10;;;6.80;;
64712;SDS011;51140;45.340;5.980;2023-06-26T03:18:18;10.00;;;5.50;;
64712;SDS011;51140;45.340;5.980;2023-06-26T03:20:43;8.95;;;5.45;;
64712;SDS011;51140;45.340;5.980;2023-06-26T03:23:09;9.45;;;6.32;;
64712;SDS011;51140;45.340;5.980;2023-06-26T03:25:34;10.15;;;6.28;;
64712;SDS011;51140;45.340;5.980;2023-06-26T03:27:59;10.43;;;6.55;;
64712;SDS011;51140;45.340;5.980;2023-06-26T03:30:25;9.48;;;6.10;;
64712;SDS011;51140;45.340;5.980;2023-06-26T03:32:50;11.10;;;6.00;;
64712;SDS011;51140;45.340;5.980;2023-06-26T03:35:15;14.82;;;6.40;;
64712;SDS011;51140;45.340;5.980;2023-06-26T03:37:41;11.32;;;6.97;;
64712;SDS011;51140;45.340;5.980;2023-06-26T03:40:06;9.65;;;6.13;;
64712;SDS011;51140;45.340;5.980;2023-06-26T03:42:32;12.23;;;6.68;;
64712;SDS011;51140;45.340;5.980;2023-06-26T03:44:57;12.68;;;6.60;;
64712;SDS011;51140;45.340;5.980;2023-06-26T03:47:23;9.52;;;5.55;;
64712;SDS011;51140;45.340;5.980;2023-06-26T03:49:49;11.02;;;6.00;;
64712;SDS011;51140;45.340;5.980;2023-06-26T03:52:14;9.50;;;6.20;;
64712;SDS011;51140;45.340;5.980;2023-06-26T03:54:39;12.80;;;6.70;;
64712;SDS011;51140;45.340;5.980;2023-06-26T03:57:05;9.95;;;6.32;;
64712;SDS011;51140;45.340;5.980;2023-06-26T03:59:30;10.63;;;6.45;;
64712;SDS011;51140;45.340;5.980;2023-06-26T04:01:55;10.50;;;6.43;;
64712;SDS011;51140;45.340;5.980;2023-06-26T04:04:21;10.60;;;6.50;;
64712;SDS011;51140;45.340;5.980;2023-06-26T04:06:46;11.45;;;6.53;;
64712;SDS011;51140;45.340;5.980;2023-06-26T04:09:12;10.05;;;7.03;;
64712;SDS011;51140;45.340;5.980;2023-06-26T04:11:37;11.27;;;6.15;;
64712;SDS011;51140;45.340;5.980;2023-06-26T04:14:03;9.40;;;6.20;;
64712;SDS011;51140;45.340;5.980;2023-06-26T04:16:28;10.20;;;6.22;;
64712;SDS011;51140;45.340;5.980;2023-06-26T04:18:53;10.95;;;6.03;;
64712;SDS011;51140;45.340;5.980;2023-06-26T04:21:21;12.18;;;6.10;;
64712;SDS011;51140;45.340;5.980;2023-06-26T04:23:48;12.63;;;6.68;;
64712;SDS011;51140;45.340;5.980;2023-06-26T04:26:14;10.80;;;6.28;;
64712;SDS011;51140;45.340;5.980;2023-06-26T04:28:40;10.80;;;6.88;;
64712;SDS011;51140;45.340;5.980;2023-06-26T04:31:05;9.65;;;5.95;;
64712;SDS011;51140;45.340;5.980;2023-06-26T04:33:30;9.25;;;6.20;;
64712;SDS011;51140;45.340;5.980;2023-06-26T04:35:56;11.20;;;6.25;;
64712;SDS011;51140;45.340;5.980;2023-06-26T04:38:22;10.20;;;6.28;;
64712;SDS011;51140;45.340;5.980;2023-06-26T04:40:48;12.18;;;7.07;;
64712;SDS011;51140;45.340;5.980;2023-06-26T04:43:13;10.43;;;6.68;;
64712;SDS011;51140;45.340;5.980;2023-06-26T04:45:39;11.88;;;6.40;;
64712;SDS011;51140;45.340;5.980;2023-06-26T04:48:04;10.90;;;5.82;;
64712;SDS011;51140;45.340;5.980;2023-06-26T04:50:30;33.08;;;7.18;;
64712;SDS011;51140;45.340;5.980;2023-06-26T04:52:56;9.27;;;6.00;;
64712;SDS011;51140;45.340;5.980;2023-06-26T04:55:25;10.85;;;6.13;;
64712;SDS011;51140;45.340;5.980;2023-06-26T04:57:51;13.07;;;7.47;;
64712;SDS011;51140;45.340;5.980;2023-06-26T05:00:16;11.82;;;7.20;;
64712;SDS011;51140;45.340;5.980;2023-06-26T05:02:42;11.52;;;6.82;;
64712;SDS011;51140;45.340;5.980;2023-06-26T05:05:08;10.13;;;6.20;;
64712;SDS011;51140;45.340;5.980;2023-06-26T05:07:33;10.38;;;6.80;;
64712;SDS011;51140;45.340;5.980;2023-06-26T05:09:59;10.90;;;6.50;;
64712;SDS011;51140;45.340;5.980;2023-06-26T05:12:24;11.15;;;6.90;;
64712;SDS011;51140;45.340;5.980;2023-06-26T05:14:49;15.23;;;7.45;;
64712;SDS011;51140;45.340;5.980;2023-06-26T05:17:15;12.70;;;7.82;;
64712;SDS011;51140;45.340;5.980;2023-06-26T05:19:40;11.98;;;6.97;;
64712;SDS011;51140;45.340;5.980;2023-06-26T05:22:06;11.27;;;7.28;;
64712;SDS011;51140;45.340;5.980;2023-06-26T05:24:35;10.98;;;6.57;;
64712;SDS011;51140;45.340;5.980;2023-06-26T05:27:02;11.80;;;6.40;;
64712;SDS011;51140;45.340;5.980;2023-06-26T05:29:29;11.80;;;7.00;;
64712;SDS011;51140;45.340;5.980;2023-06-26T05:31:56;10.98;;;6.45;;
64712;SDS011;51140;45.340;5.980;2023-06-26T05:34:24;12.63;;;6.72;;
64712;SDS011;51140;45.340;5.980;2023-06-26T05:36:54;10.70;;;6.22;;
64712;SDS011;51140;45.340;5.980;2023-06-26T05:39:23;8.68;;;5.90;;
64712;SDS011;51140;45.340;5.980;2023-06-26T05:41:49;9.63;;;6.22;;
64712;SDS011;51140;45.340;5.980;2023-06-26T05:44:15;9.93;;;6.18;;
64712;SDS011;51140;45.340;5.980;2023-06-26T05:46:40;11.40;;;6.30;;
64712;SDS011;51140;45.340;5.980;2023-06-26T05:49:06;10.00;;;6.25;;
64712;SDS011;51140;45.340;5.980;2023-06-26T05:51:31;13.75;;;6.35;;
64712;SDS011;51140;45.340;5.980;2023-06-26T05:53:57;9.82;;;6.35;;
64712;SDS011;51140;45.340;5.980;2023-06-26T05:56:22;11.00;;;6.63;;
64712;SDS011;51140;45.340;5.980;2023-06-26T05:58:48;11.13;;;6.57;;
64712;SDS011;51140;45.340;5.980;2023-06-26T06:01:14;8.60;;;6.10;;
64712;SDS011;51140;45.340;5.980;2023-06-26T06:03:40;9.93;;;6.25;;
64712;SDS011;51140;45.340;5.980;2023-06-26T06:06:05;11.88;;;6.75;;
64712;SDS011;51140;45.340;5.980;2023-06-26T06:08:31;10.15;;;6.60;;
64712;SDS011;51140;45.340;5.980;2023-06-26T06:10:56;10.05;;;6.68;;
64712;SDS011;51140;45.340;5.980;2023-06-26T06:13:22;11.02;;;6.85;;
64712;SDS011;51140;45.340;5.980;2023-06-26T06:15:48;11.02;;;6.78;;
64712;SDS011;51140;45.340;5.980;2023-06-26T06:18:13;10.43;;;6.63;;
64712;SDS011;51140;45.340;5.980;2023-06-26T06:20:39;10.25;;;6.82;;
64712;SDS011;51140;45.340;5.980;2023-06-26T06:23:04;9.68;;;6.78;;
64712;SDS011;51140;45.340;5.980;2023-06-26T06:25:29;9.90;;;7.07;;
64712;SDS011;51140;45.340;5.980;2023-06-26T06:27:55;12.18;;;7.30;;
64712;SDS011;51140;45.340;5.980;2023-06-26T06:30:20;12.40;;;6.80;;
64712;SDS011;51140;45.340;5.980;2023-06-26T06:32:45;10.05;;;6.90;;
64712;SDS011;51140;45.340;5.980;2023-06-26T06:35:15;11.43;;;6.93;;
64712;SDS011;51140;45.340;5.980;2023-06-26T06:37:41;13.00;;;7.53;;
64712;SDS011;51140;45.340;5.980;2023-06-26T06:40:06;14.35;;;6.80;;
64712;SDS011;51140;45.340;5.980;2023-06-26T06:42:34;13.00;;;7.88;;
64712;SDS011;51140;45.340;5.980;2023-06-26T06:44:59;10.35;;;7.03;;
64712;SDS011;51140;45.340;5.980;2023-06-26T06:47:25;12.68;;;7.90;;
64712;SDS011;51140;45.340;5.980;2023-06-26T06:49:50;12.75;;;7.90;;
64712;SDS011;51140;45.340;5.980;2023-06-26T06:52:16;12.30;;;7.05;;
64712;SDS011;51140;45.340;5.980;2023-06-26T06:54:51;13.38;;;7.72;;
64712;SDS011;51140;45.340;5.980;2023-06-26T06:57:17;12.07;;;8.00;;
64712;SDS011;51140;45.340;5.980;2023-06-26T06:59:43;11.18;;;7.50;;
64712;SDS011;51140;45.340;5.980;2023-06-26T07:02:08;10.30;;;7.32;;
64712;SDS011;51140;45.340;5.980;2023-06-26T07:04:33;11.45;;;7.03;;
64712;SDS011;51140;45.340;5.980;2023-06-26T07:06:59;11.20;;;6.80;;
64712;SDS011;51140;45.340;5.980;2023-06-26T07:09:24;12.88;;;6.70;;
64712;SDS011;51140;45.340;5.980;2023-06-26T07:11:49;12.23;;;7.22;;
64712;SDS011;51140;45.340;5.980;2023-06-26T07:14:15;10.63;;;5.70;;
64712;SDS011;51140;45.340;5.980;2023-06-26T07:16:40;9.20;;;6.35;;
64712;SDS011;51140;45.340;5.980;2023-06-26T07:19:05;10.02;;;6.85;;
64712;SDS011;51140;45.340;5.980;2023-06-26T07:21:31;9.23;;;6.30;;
64712;SDS011;51140;45.340;5.980;2023-06-26T07:23:56;13.60;;;7.00;;
64712;SDS011;51140;45.340;5.980;2023-06-26T07:26:21;12.02;;;6.55;;
64712;SDS011;51140;45.340;5.980;2023-06-26T07:28:47;15.93;;;7.68;;
64712;SDS011;51140;45.340;5.980;2023-06-26T07:31:13;11.45;;;7.30;;
64712;SDS011;51140;45.340;5.980;2023-06-26T07:33:39;11.27;;;7.03;;
64712;SDS011;51140;45.340;5.980;2023-06-26T07:36:05;13.77;;;7.30;;
64712;SDS011;51140;45.340;5.980;2023-06-26T07:38:30;15.38;;;7.28;;
64712;SDS011;51140;45.340;5.980;2023-06-26T07:40:56;18.27;;;7.70;;
64712;SDS011;51140;45.340;5.980;2023-06-26T07:43:21;20.50;;;8.85;;
64712;SDS011;51140;45.340;5.980;2023-06-26T07:45:48;13.57;;;7.40;;
64712;SDS011;51140;45.340;5.980;2023-06-26T07:48:14;23.63;;;9.30;;
64712;SDS011;51140;45.340;5.980;2023-06-26T07:50:39;17.63;;;9.10;;
64712;SDS011;51140;45.340;5.980;2023-06-26T07:53:04;13.02;;;7.78;;
64712;SDS011;51140;45.340;5.980;2023-06-26T07:55:30;15.18;;;8.60;;
64712;SDS011;51140;45.340;5.980;2023-06-26T07:57:56;16.90;;;8.55;;
64712;SDS011;51140;45.340;5.980;2023-06-26T08:00:22;17.73;;;8.10;;
64712;SDS011;51140;45.340;5.980;2023-06-26T08:02:47;13.70;;;8.43;;
64712;SDS011;51140;45.340;5.980;2023-06-26T08:05:13;13.40;;;7.85;;
64712;SDS011;51140;45.340;5.980;2023-06-26T08:07:38;14.30;;;7.63;;
64712;SDS011;51140;45.340;5.980;2023-06-26T08:10:04;13.18;;;7.68;;
64712;SDS011;51140;45.340;5.980;2023-06-26T08:12:30;11.93;;;7.60;;
64712;SDS011;51140;45.340;5.980;2023-06-26T08:14:56;11.38;;;7.50;;
64712;SDS011;51140;45.340;5.980;2023-06-26T08:17:21;11.20;;;7.60;;
64712;SDS011;51140;45.340;5.980;2023-06-26T08:19:46;11.63;;;7.45;;
64712;SDS011;51140;45.340;5.980;2023-06-26T08:22:12;11.45;;;7.40;;
64712;SDS011;51140;45.340;5.980;2023-06-26T08:24:37;13.35;;;7.97;;
64712;SDS011;51140;45.340;5.980;2023-06-26T08:27:03;12.50;;;7.78;;
64712;SDS011;51140;45.340;5.980;2023-06-26T08:29:29;13.07;;;7.75;;
64712;SDS011;51140;45.340;5.980;2023-06-26T08:31:54;11.82;;;6.97;;
64712;SDS011;51140;45.340;5.980;2023-06-26T08:34:19;11.68;;;7.35;;
64712;SDS011;51140;45.340;5.980;2023-06-26T08:36:45;11.15;;;7.22;;
64712;SDS011;51140;45.340;5.980;2023-06-26T08:39:10;10.80;;;7.75;;
64712;SDS011;51140;45.340;5.980;2023-06-26T08:41:36;10.75;;;7.20;;
64712;SDS011;51140;45.340;5.980;2023-06-26T08:44:02;11.35;;;7.68;;
64712;SDS011;51140;45.340;5.980;2023-06-26T08:46:28;13.55;;;7.72;;
64712;SDS011;51140;45.340;5.980;2023-06-26T08:48:57;10.43;;;7.43;;
64712;SDS011;51140;45.340;5.980;2023-06-26T08:51:27;17.80;;;7.75;;
64712;SDS011;51140;45.340;5.980;2023-06-26T08:53:57;12.63;;;7.75;;
64712;SDS011;51140;45.340;5.980;2023-06-26T08:56:25;13.13;;;7.88;;
64712;SDS011;51140;45.340;5.980;2023-06-26T08:58:56;14.20;;;7.97;;
64712;SDS011;51140;45.340;5.980;2023-06-26T09:01:22;13.13;;;7.68;;
64712;SDS011;51140;45.340;5.980;2023-06-26T09:03:49;13.25;;;7.90;;
64712;SDS011;51140;45.340;5.980;2023-06-26T09:06:15;15.45;;;8.65;;
64712;SDS011;51140;45.340;5.980;2023-06-26T09:08:43;13.10;;;8.52;;
64712;SDS011;51140;45.340;5.980;2023-06-26T09:11:08;12.60;;;8.10;;
64712;SDS011;51140;45.340;5.980;2023-06-26T09:13:33;11.68;;;7.00;;
64712;SDS011;51140;45.340;5.980;2023-06-26T09:15:59;14.30;;;7.93;;
64712;SDS011;51140;45.340;5.980;2023-06-26T09:18:31;13.57;;;7.40;;
64712;SDS011;51140;45.340;5.980;2023-06-26T09:20:57;18.45;;;8.00;;
64712;SDS011;51140;45.340;5.980;2023-06-26T09:23:23;13.18;;;7.70;;
64712;SDS011;51140;45.340;5.980;2023-06-26T09:25:48;12.43;;;7.47;;
64712;SDS011;51140;45.340;5.980;2023-06-26T09:28:16;12.20;;;7.47;;
64712;SDS011;51140;45.340;5.980;2023-06-26T09:30:42;10.90;;;7.47;;
64712;SDS011;51140;45.340;5.980;2023-06-26T09:33:14;15.77;;;8.43;;
64712;SDS011;51140;45.340;5.980;2023-06-26T09:35:41;11.07;;;7.28;;
64712;SDS011;51140;45.340;5.980;2023-06-26T09:38:07;11.80;;;7.07;;
64712;SDS011;51140;45.340;5.980;2023-06-26T09:40:33;11.65;;;7.43;;
64712;SDS011;51140;45.340;5.980;2023-06-26T09:43:03;12.93;;;7.30;;
64712;SDS011;51140;45.340;5.980;2023-06-26T09:45:30;9.98;;;6.97;;
64712;SDS011;51140;45.340;5.980;2023-06-26T09:47:59;10.70;;;7.15;;
64712;SDS011;51140;45.340;5.980;2023-06-26T09:50:27;13.00;;;7.25;;
64712;SDS011;51140;45.340;5.980;2023-06-26T09:52:54;12.07;;;6.95;;
64712;SDS011;51140;45.340;5.980;2023-06-26T09:55:20;10.43;;;7.30;;
64712;SDS011;51140;45.340;5.980;2023-06-26T09:57:52;12.07;;;7.07;;
64712;SDS011;51140;45.340;5.980;2023-06-26T10:00:21;11.45;;;7.00;;
64712;SDS011;51140;45.340;5.980;2023-06-26T10:02:47;9.43;;;6.90;;
64712;SDS011;51140;45.340;5.980;2023-06-26T10:05:12;11.68;;;7.18;;
64712;SDS011;51140;45.340;5.980;2023-06-26T10:07:37;9.00;;;6.53;;
64712;SDS011;51140;45.340;5.980;2023-06-26T10:10:04;9.77;;;7.10;;
64712;SDS011;51140;45.340;5.980;2023-06-26T10:12:32;11.63;;;6.53;;
64712;SDS011;51140;45.340;5.980;2023-06-26T10:14:58;9.68;;;6.20;;
64712;SDS011;51140;45.340;5.980;2023-06-26T10:17:27;11.98;;;6.88;;
64712;SDS011;51140;45.340;5.980;2023-06-26T10:19:54;9.52;;;6.30;;
64712;SDS011;51140;45.340;5.980;2023-06-26T10:22:24;10.45;;;6.15;;
64712;SDS011;51140;45.340;5.980;2023-06-26T10:24:54;10.32;;;6.28;;
64712;SDS011;51140;45.340;5.980;2023-06-26T10:27:24;9.18;;;5.95;;
64712;SDS011;51140;45.340;5.980;2023-06-26T10:29:55;11.43;;;6.22;;
64712;SDS011;51140;45.340;5.980;2023-06-26T10:32:25;10.07;;;6.05;;
64712;SDS011;51140;45.340;5.980;2023-06-26T10:34:51;9.00;;;5.90;;
64712;SDS011;51140;45.340;5.980;2023-06-26T10:37:17;13.40;;;5.78;;
64712;SDS011;51140;45.340;5.980;2023-06-26T10:39:50;12.98;;;6.18;;
64712;SDS011;51140;45.340;5.980;2023-06-26T10:42:19;8.88;;;5.82;;
64712;SDS011;51140;45.340;5.980;2023-06-26T10:44:58;10.48;;;5.53;;
64712;SDS011;51140;45.340;5.980;2023-06-26T10:47:34;8.10;;;5.63;;
64712;SDS011;51140;45.340;5.980;2023-06-26T10:55:43;10.75;;;5.72;;
64712;SDS011;51140;45.340;5.980;2023-06-26T11:04:22;8.88;;;5.90;;
64712;SDS011;51140;45.340;5.980;2023-06-26T11:06:30;12.95;;;5.80;;
64712;SDS011;51140;45.340;5.980;2023-06-26T11:14:17;7.88;;;5.72;;
64712;SDS011;51140;45.340;5.980;2023-06-26T11:16:43;9.52;;;5.45;;
64712;SDS011;51140;45.340;5.980;2023-06-26T11:19:09;8.32;;;5.90;;
64712;SDS011;51140;45.340;5.980;2023-06-26T11:21:36;11.23;;;5.82;;
64712;SDS011;51140;45.340;5.980;2023-06-26T11:24:03;12.38;;;5.80;;
64712;SDS011;51140;45.340;5.980;2023-06-26T11:26:30;9.90;;;5.57;;
64712;SDS011;51140;45.340;5.980;2023-06-26T11:29:02;9.10;;;5.82;;
64712;SDS011;51140;45.340;5.980;2023-06-26T11:31:28;10.52;;;5.50;;
64712;SDS011;51140;45.340;5.980;2023-06-26T11:34:01;8.13;;;5.47;;
64712;SDS011;51140;45.340;5.980;2023-06-26T11:36:28;8.18;;;5.47;;
64712;SDS011;51140;45.340;5.980;2023-06-26T11:38:55;8.00;;;5.55;;
64712;SDS011;51140;45.340;5.980;2023-06-26T11:41:21;8.70;;;5.90;;
64712;SDS011;51140;45.340;5.980;2023-06-26T11:43:47;9.48;;;5.95;;
64712;SDS011;51140;45.340;5.980;2023-06-26T11:46:16;9.52;;;5.88;;
64712;SDS011;51140;45.340;5.980;2023-06-26T11:48:42;10.25;;;6.13;;
64712;SDS011;51140;45.340;5.980;2023-06-26T11:51:08;10.77;;;5.90;;
64712;SDS011;51140;45.340;5.980;2023-06-26T11:53:38;8.63;;;6.00;;
64712;SDS011;51140;45.340;5.980;2023-06-26T11:56:09;11.93;;;5.97;;
64712;SDS011;51140;45.340;5.980;2023-06-26T11:58:58;9.77;;;5.90;;
64712;SDS011;51140;45.340;5.980;2023-06-26T12:01:39;9.90;;;6.13;;
64712;SDS011;51140;45.340;5.980;2023-06-26T12:04:06;9.65;;;6.00;;
64712;SDS011;51140;45.340;5.980;2023-06-26T12:06:34;9.30;;;6.53;;
64712;SDS011;51140;45.340;5.980;2023-06-26T12:09:01;9.82;;;5.90;;
64712;SDS011;51140;45.340;5.980;2023-06-26T12:11:30;8.10;;;5.72;;
64712;SDS011;51140;45.340;5.980;2023-06-26T12:13:56;10.43;;;5.90;;
64712;SDS011;51140;45.340;5.980;2023-06-26T12:16:22;9.68;;;6.18;;
64712;SDS011;51140;45.340;5.980;2023-06-26T12:18:47;10.40;;;5.80;;
64712;SDS011;51140;45.340;5.980;2023-06-26T12:21:33;8.80;;;5.97;;
64712;SDS011;51140;45.340;5.980;2023-06-26T12:24:02;8.93;;;5.68;;
64712;SDS011;51140;45.340;5.980;2023-06-26T12:26:28;10.88;;;6.70;;
64712;SDS011;51140;45.340;5.980;2023-06-26T12:29:01;11.57;;;6.40;;
64712;SDS011;51140;45.340;5.980;2023-06-26T12:31:33;9.45;;;5.80;;
64712;SDS011;51140;45.340;5.980;2023-06-26T12:33:59;11.60;;;5.75;;
64712;SDS011;51140;45.340;5.980;2023-06-26T12:36:25;13.18;;;6.30;;
64712;SDS011;51140;45.340;5.980;2023-06-26T12:38:52;9.65;;;6.07;;
64712;SDS011;51140;45.340;5.980;2023-06-26T12:41:18;9.52;;;5.97;;
64712;SDS011;51140;45.340;5.980;2023-06-26T12:43:45;10.05;;;6.50;;
64712;SDS011;51140;45.340;5.980;2023-06-26T12:46:10;9.65;;;6.63;;
64712;SDS011;51140;45.340;5.980;2023-06-26T12:48:39;11.70;;;6.68;;
64712;SDS011;51140;45.340;5.980;2023-06-26T12:51:15;10.85;;;6.55;;
64712;SDS011;51140;45.340;5.980;2023-06-26T12:53:41;8.82;;;6.07;;
64712;SDS011;51140;45.340;5.980;2023-06-26T12:56:10;12.90;;;6.70;;
64712;SDS011;51140;45.340;5.980;2023-06-26T12:58:36;9.15;;;6.53;;
64712;SDS011;51140;45.340;5.980;2023-06-26T13:01:03;11.25;;;6.35;;
64712;SDS011;51140;45.340;5.980;2023-06-26T13:03:29;11.38;;;6.22;;
64712;SDS011;51140;45.340;5.980;2023-06-26T13:05:55;9.32;;;6.18;;
64712;SDS011;51140;45.340;5.980;2023-06-26T13:08:20;8.88;;;6.30;;
64712;SDS011;51140;45.340;5.980;2023-06-26T13:10:46;10.95;;;6.20;;
64712;SDS011;51140;45.340;5.980;2023-06-26T13:13:11;9.30;;;6.15;;
64712;SDS011;51140;45.340;5.980;2023-06-26T13:15:37;13.60;;;6.10;;
64712;SDS011;51140;45.340;5.980;2023-06-26T13:18:02;8.80;;;6.32;;
64712;SDS011;51140;45.340;5.980;2023-06-26T13:20:28;10.43;;;6.15;;
64712;SDS011;51140;45.340;5.980;2023-06-26T13:22:54;10.65;;;6.40;;
64712;SDS011;51140;45.340;5.980;2023-06-26T13:25:20;11.05;;;6.72;;
64712;SDS011;51140;45.340;5.980;2023-06-26T13:27:46;8.73;;;6.47;;
64712;SDS011;51140;45.340;5.980;2023-06-26T13:30:13;13.65;;;6.82;;
64712;SDS011;51140;45.340;5.980;2023-06-26T13:32:39;8.68;;;6.35;;
64712;SDS011;51140;45.340;5.980;2023-06-26T13:35:05;9.30;;;6.60;;
64712;SDS011;51140;45.340;5.980;2023-06-26T13:37:31;10.70;;;6.57;;
64712;SDS011;51140;45.340;5.980;2023-06-26T13:39:56;11.10;;;6.25;;
64712;SDS011;51140;45.340;5.980;2023-06-26T13:42:24;16.40;;;6.88;;
64712;SDS011;51140;45.340;5.980;2023-06-26T13:44:49;8.77;;;6.25;;
64712;SDS011;51140;45.340;5.980;2023-06-26T13:47:14;12.30;;;6.50;;
64712;SDS011;51140;45.340;5.980;2023-06-26T13:49:40;10.98;;;6.22;;
64712;SDS011;51140;45.340;5.980;2023-06-26T13:52:06;10.40;;;6.63;;
64712;SDS011;51140;45.340;5.980;2023-06-26T13:54:34;10.55;;;6.97;;
64712;SDS011;51140;45.340;5.980;2023-06-26T13:57:00;13.70;;;6.25;;
64712;SDS011;51140;45.340;5.980;2023-06-26T13:59:27;10.20;;;6.38;;
64712;SDS011;51140;45.340;5.980;2023-06-26T14:01:53;13.32;;;6.93;;
64712;SDS011;51140;45.340;5.980;2023-06-26T14:04:18;11.07;;;6.32;;
64712;SDS011;51140;45.340;5.980;2023-06-26T14:06:44;10.68;;;6.25;;
64712;SDS011;51140;45.340;5.980;2023-06-26T14:09:10;9.75;;;6.43;;
64712;SDS011;51140;45.340;5.980;2023-06-26T14:11:36;12.18;;;6.35;;
64712;SDS011;51140;45.340;5.980;2023-06-26T14:14:01;10.27;;;6.20;;
64712;SDS011;51140;45.340;5.980;2023-06-26T14:16:27;11.73;;;6.47;;
64712;SDS011;51140;45.340;5.980;2023-06-26T14:18:53;10.57;;;6.40;;
64712;SDS011;51140;45.340;5.980;2023-06-26T14:21:19;12.50;;;6.43;;
64712;SDS011;51140;45.340;5.980;2023-06-26T14:23:45;9.60;;;6.20;;
64712;SDS011;51140;45.340;5.980;2023-06-26T14:26:10;8.70;;;6.38;;
64712;SDS011;51140;45.340;5.980;2023-06-26T14:28:36;10.60;;;6.55;;
64712;SDS011;51140;45.340;5.980;2023-06-26T14:31:03;9.95;;;6.38;;
64712;SDS011;51140;45.340;5.980;2023-06-26T14:33:28;10.85;;;6.63;;
64712;SDS011;51140;45.340;5.980;2023-06-26T14:35:53;10.05;;;6.68;;
64712;SDS011;51140;45.340;5.980;2023-06-26T14:38:19;12.30;;;6.78;;
64712;SDS011;51140;45.340;5.980;2023-06-26T14:40:44;14.82;;;6.72;;
64712;SDS011;51140;45.340;5.980;2023-06-26T14:43:10;14.07;;;6.68;;
64712;SDS011;51140;45.340;5.980;2023-06-26T14:45:35;12.02;;;6.45;;
64712;SDS011;51140;45.340;5.980;2023-06-26T14:48:01;9.27;;;6.53;;
64712;SDS011;51140;45.340;5.980;2023-06-26T14:50:26;10.00;;;6.65;;
64712;SDS011;51140;45.340;5.980;2023-06-26T14:52:51;9.45;;;6.25;;
64712;SDS011;51140;45.340;5.980;2023-06-26T14:55:17;11.40;;;7.05;;
64712;SDS011;51140;45.340;5.980;2023-06-26T14:57:42;12.13;;;6.80;;
64712;SDS011;51140;45.340;5.980;2023-06-26T15:00:08;12.10;;;6.50;;
64712;SDS011;51140;45.340;5.980;2023-06-26T15:02:34;10.73;;;6.88;;
64712;SDS011;51140;45.340;5.980;2023-06-26T15:04:59;10.93;;;6.88;;